עמוד ראשי
METAR-TAF:

METAR-TAF

שדות תעופה :

אנטקיה, טורקיה

קו רוחב: 36-21-46N, קו אורך: 36-16-56E, גובה: 1950מטר

תצפית מזג אוויר נוכחית

הדו"ח נערך לפני 24דקות, בשעה 10:50 UTC
רוח 23קשר מכיוון דרום-מערב
טמפרטורת 33 צלסיוס
לחות 53%
לחץ 1003 hPa
ראות 10 קילומטר או יותר
ללא עננים שבסיסם נמוך מ 5000 רגל או קומולונימבוס

METAR: LTDA 251050Z 22023KT CAVOK 33/22 Q1003 NOSIG

זמן: 14:14 (11:14 UTC)

תחזית

הדו"ח נערך לפני 3 שעות ו 34דקות, בשעה 07:40 UTC
תחזית בתוקף מ 25 ב 09 UTC עד 25 ב 18 UTC
רוח 21קשר מכיוון דרום-מערב
ראות 10 קילומטר או יותר
ללא עננים שבסיסם נמוך מ 5000 רגל או קומולונימבוס
זמנית מ -
25 ב 11 UTC עד 25 ב 15 UTC
רוח 25קשר מכיוון דרום-מערב עם משבים עד 35קשר

TAF: LTDA 250740Z 2509/2518 22021KT CAVOK TEMPO 2511/2515 23025G35KT

תצפיות ותחזיות מזג אוויר לגבי יותר מ- 4,000 שדות תעופה ברחבי העולם. דוחות METAR ו- TAF.

התחנות הזמינות מסומנות בנקודות צהובות ואדומות על גבי המפה.

העבר את העכבר לנקודה הצבעונית על מנת לראות את שם התחנה.

לאחר מכן, לחץ כדי לראות את תוכן ואת תחזיות מזג האוויר.

כדי לשנות את המפה: לחץ על הכפתורים הירוקים עם הפלוס השחור כדי להתקרב; על הכפתור הירוק עם המקף כדי להתרחק; או בחיצים הירוקים למפות סמוכות.


METAR-TAF: